createdAt,value
2023-01-22T00:00:56.674Z,3.41
2023-01-22T00:03:28.800Z,3.55
2023-01-22T00:06:01.004Z,3.70
2023-01-22T00:08:34.313Z,3.65
2023-01-22T00:11:06.617Z,2.98
2023-01-22T00:13:38.868Z,3.40
2023-01-22T00:16:15.220Z,3.60
2023-01-22T00:18:47.744Z,3.62
2023-01-22T00:21:19.876Z,2.74
2023-01-22T00:23:52.515Z,3.07
2023-01-22T00:26:26.736Z,3.24
2023-01-22T00:29:00.731Z,3.36
2023-01-22T00:31:32.861Z,3.52
2023-01-22T00:34:05.479Z,3.64
2023-01-22T00:36:37.541Z,3.79
2023-01-22T00:39:10.360Z,3.19
2023-01-22T00:41:43.392Z,2.66
2023-01-22T00:44:15.725Z,3.79
2023-01-22T00:46:47.809Z,3.44
2023-01-22T00:49:20.061Z,3.69
2023-01-22T00:51:55.104Z,3.47
2023-01-22T00:54:27.312Z,3.68
2023-01-22T00:56:59.388Z,3.64
2023-01-22T00:59:31.454Z,3.61
2023-01-22T01:02:04.105Z,2.91
2023-01-22T01:04:36.245Z,3.60
2023-01-22T01:07:11.590Z,3.46
2023-01-22T01:09:44.162Z,2.94
2023-01-22T01:12:16.207Z,3.44
2023-01-22T01:14:48.349Z,3.16
2023-01-22T01:17:20.462Z,3.34
2023-01-22T01:19:53.282Z,2.68
2023-01-22T01:22:25.471Z,3.52
2023-01-22T01:24:57.690Z,3.49
2023-01-22T01:27:31.864Z,3.30
2023-01-22T01:30:07.305Z,3.35
2023-01-22T01:32:39.416Z,3.19
2023-01-22T01:35:13.728Z,3.32
2023-01-22T01:37:45.785Z,2.96
2023-01-22T01:40:20.855Z,2.92
2023-01-22T01:42:52.941Z,3.00
2023-01-22T01:45:33.004Z,3.01
2023-01-22T01:48:23.713Z,3.53
2023-01-22T01:51:15.419Z,3.32
2023-01-22T01:53:51.069Z,3.39
2023-01-22T01:56:34.685Z,2.72
2023-01-22T01:59:12.203Z,3.07
2023-01-22T02:01:52.220Z,3.22
2023-01-22T02:04:25.094Z,3.45
2023-01-22T02:06:57.323Z,2.96
2023-01-22T02:09:29.557Z,3.53
2023-01-22T02:12:03.476Z,2.76
2023-01-22T02:14:40.987Z,3.46
2023-01-22T02:17:19.435Z,3.41
2023-01-22T02:19:54.594Z,3.45
2023-01-22T02:22:32.414Z,3.29
2023-01-22T02:25:05.676Z,2.84
2023-01-22T02:27:38.759Z,3.34
2023-01-22T02:30:18.904Z,3.12
2023-01-22T02:32:54.190Z,2.93
2023-01-22T02:35:26.300Z,3.51
2023-01-22T02:37:58.350Z,3.54
2023-01-22T02:40:30.392Z,3.18
2023-01-22T02:43:02.526Z,3.57
2023-01-22T02:45:34.759Z,3.39
2023-01-22T02:48:06.939Z,3.52
2023-01-22T02:50:39.260Z,3.65
2023-01-22T02:53:12.077Z,3.68
2023-01-22T02:55:46.247Z,3.73
2023-01-22T02:58:18.277Z,3.76
2023-01-22T03:00:52.545Z,3.24
2023-01-22T03:03:26.945Z,3.77
2023-01-22T03:05:59.031Z,3.52
2023-01-22T03:08:31.169Z,3.74
2023-01-22T03:11:03.242Z,3.27
2023-01-22T03:13:54.082Z,3.74
2023-01-22T03:16:44.733Z,3.68
2023-01-22T03:19:35.837Z,3.64
2023-01-22T03:22:08.173Z,3.50
2023-01-22T03:24:40.231Z,3.43
2023-01-22T03:27:13.322Z,3.67
2023-01-22T03:29:45.661Z,2.38
2023-01-22T03:32:18.063Z,2.90
2023-01-22T03:34:52.270Z,3.54
2023-01-22T03:37:24.658Z,3.52
2023-01-22T03:39:58.052Z,3.69
2023-01-22T03:42:30.123Z,3.66
2023-01-22T03:45:02.255Z,3.31
2023-01-22T03:47:34.201Z,3.19
2023-01-22T03:50:07.068Z,3.60
2023-01-22T03:52:39.116Z,2.99
2023-01-22T03:55:11.537Z,2.75
2023-01-22T03:57:43.746Z,2.98
2023-01-22T04:00:16.375Z,2.90
2023-01-22T04:02:49.405Z,3.31
2023-01-22T04:05:21.612Z,2.83
2023-01-22T04:07:53.685Z,3.63
2023-01-22T04:10:25.800Z,3.03
2023-01-22T04:12:57.864Z,3.16
2023-01-22T04:15:30.252Z,2.72
2023-01-22T04:18:02.199Z,3.01
2023-01-22T04:20:34.397Z,3.22
2023-01-22T04:23:08.135Z,3.60
2023-01-22T04:25:40.197Z,3.14
2023-01-22T04:28:14.692Z,3.75
2023-01-22T04:30:51.326Z,3.44
2023-01-22T04:33:23.778Z,2.88
2023-01-22T04:35:56.308Z,3.41
2023-01-22T04:38:28.684Z,3.59
2023-01-22T04:41:00.943Z,3.52
2023-01-22T04:43:33.552Z,3.71
2023-01-22T04:46:05.979Z,3.46
2023-01-22T04:48:40.972Z,3.13
2023-01-22T04:51:13.955Z,3.05
2023-01-22T04:53:46.245Z,2.95
2023-01-22T04:56:18.446Z,3.56
2023-01-22T04:58:51.136Z,3.52
2023-01-22T05:01:23.435Z,3.29
2023-01-22T05:03:55.502Z,3.38
2023-01-22T05:06:27.503Z,3.38
2023-01-22T05:08:59.461Z,3.30
2023-01-22T05:11:31.620Z,3.54
2023-01-22T05:14:03.716Z,3.57
2023-01-22T05:16:36.677Z,3.58
2023-01-22T05:19:08.845Z,3.22
2023-01-22T05:21:43.579Z,2.88
2023-01-22T05:24:15.625Z,3.02
2023-01-22T05:26:47.842Z,2.39
2023-01-22T05:29:20.135Z,2.69
2023-01-22T05:31:57.717Z,2.97
2023-01-22T05:34:29.762Z,2.84
2023-01-22T05:37:02.046Z,3.19
2023-01-22T05:39:46.379Z,3.16
2023-01-22T05:42:18.766Z,3.46
2023-01-22T05:44:51.207Z,2.98
2023-01-22T05:47:23.303Z,3.14
2023-01-22T05:49:55.751Z,3.62
2023-01-22T05:52:28.053Z,2.87
2023-01-22T05:55:02.004Z,3.31
2023-01-22T05:57:35.679Z,2.74
2023-01-22T06:00:08.876Z,3.05
2023-01-22T06:02:43.253Z,3.69
2023-01-22T06:05:15.735Z,3.57
2023-01-22T06:07:47.852Z,3.28
2023-01-22T06:10:20.595Z,3.55
2023-01-22T06:12:53.156Z,3.31
2023-01-22T06:15:25.201Z,3.19
2023-01-22T06:18:01.807Z,2.44
2023-01-22T06:20:33.888Z,3.05
2023-01-22T06:23:07.673Z,2.68
2023-01-22T06:25:39.743Z,3.03
2023-01-22T06:28:11.822Z,3.84
2023-01-22T06:30:43.846Z,3.88
2023-01-22T06:33:15.996Z,3.76
2023-01-22T06:35:48.101Z,3.65
2023-01-22T06:38:20.394Z,2.85
2023-01-22T06:40:58.226Z,3.87
2023-01-22T06:43:30.491Z,3.91
2023-01-22T06:46:04.671Z,3.80
2023-01-22T06:48:36.764Z,3.93
2023-01-22T06:51:09.067Z,3.91
2023-01-22T06:53:41.804Z,3.32
2023-01-22T06:56:16.989Z,3.57
2023-01-22T06:58:49.328Z,3.34
2023-01-22T07:01:21.521Z,3.81
2023-01-22T07:03:56.733Z,3.66
2023-01-22T07:06:28.856Z,3.60
2023-01-22T07:09:00.931Z,3.38
2023-01-22T07:11:33.330Z,3.66
2023-01-22T07:14:05.547Z,3.74
2023-01-22T07:16:37.730Z,3.98
2023-01-22T07:19:09.896Z,3.99
2023-01-22T07:21:42.415Z,4.00
2023-01-22T07:24:18.021Z,2.87
2023-01-22T07:26:51.178Z,3.68
2023-01-22T07:29:23.475Z,3.33
2023-01-22T07:31:55.606Z,3.38
2023-01-22T07:34:27.650Z,3.31
2023-01-22T07:37:02.224Z,3.55
2023-01-22T07:39:34.389Z,3.46
2023-01-22T07:42:06.478Z,3.49
2023-01-22T07:44:40.585Z,4.03
2023-01-22T07:47:13.855Z,3.93
2023-01-22T07:49:45.992Z,4.07
2023-01-22T07:52:17.953Z,3.30
2023-01-22T07:54:50.960Z,4.07
2023-01-22T07:57:23.033Z,4.02
2023-01-22T07:59:55.090Z,3.53
2023-01-22T08:02:27.268Z,4.04
2023-01-22T08:04:59.393Z,3.40
2023-01-22T08:07:31.567Z,3.34
2023-01-22T08:10:04.197Z,3.76
2023-01-22T08:12:42.019Z,3.74
2023-01-22T08:15:14.991Z,3.73
2023-01-22T08:17:52.006Z,3.28
2023-01-22T08:20:25.238Z,3.81
2023-01-22T08:23:01.761Z,3.21
2023-01-22T08:25:34.020Z,4.22
2023-01-22T08:28:07.531Z,3.86
2023-01-22T08:30:46.030Z,3.76
2023-01-22T08:33:19.098Z,4.22
2023-01-22T08:35:52.024Z,3.45
2023-01-22T08:38:24.255Z,3.55
2023-01-22T08:40:56.566Z,3.91
2023-01-22T08:43:31.177Z,4.12
2023-01-22T08:46:03.354Z,4.22
2023-01-22T08:48:35.584Z,4.21
2023-01-22T08:51:07.913Z,3.45
2023-01-22T08:53:40.201Z,4.25
2023-01-22T08:56:14.331Z,4.15
2023-01-22T08:58:52.782Z,3.69
2023-01-22T09:01:25.073Z,3.57
2023-01-22T09:03:57.330Z,3.66
2023-01-22T09:06:29.398Z,3.58
2023-01-22T09:09:02.125Z,3.70
2023-01-22T09:11:34.751Z,3.92
2023-01-22T09:14:08.570Z,3.17
2023-01-22T09:16:40.742Z,3.44
2023-01-22T09:19:13.221Z,3.98
2023-01-22T09:21:45.713Z,3.71
2023-01-22T09:24:17.991Z,4.22
2023-01-22T09:26:50.915Z,3.77
2023-01-22T09:29:23.087Z,3.67
2023-01-22T09:31:55.308Z,4.47
2023-01-22T09:34:27.521Z,4.25
2023-01-22T09:37:02.761Z,4.35
2023-01-22T09:39:34.862Z,4.14
2023-01-22T09:42:14.638Z,4.14
2023-01-22T09:44:55.951Z,4.50
2023-01-22T09:47:31.223Z,4.51
2023-01-22T09:50:19.250Z,4.50
2023-01-22T09:52:54.861Z,4.56
2023-01-22T09:55:35.893Z,4.56
2023-01-22T09:58:17.897Z,4.33
2023-01-22T10:01:01.368Z,3.98
2023-01-22T10:03:36.012Z,4.50
2023-01-22T10:06:22.979Z,3.89
2023-01-22T10:09:16.113Z,4.40
2023-01-22T10:11:54.301Z,3.63
2023-01-22T10:14:30.352Z,3.66
2023-01-22T10:17:03.976Z,4.48
2023-01-22T10:19:48.302Z,4.29
2023-01-22T10:22:26.309Z,4.02
2023-01-22T10:24:58.621Z,4.06
2023-01-22T10:27:40.803Z,3.98
2023-01-22T10:30:25.487Z,4.26
2023-01-22T10:33:04.502Z,4.41
2023-01-22T10:35:59.805Z,4.53
2023-01-22T10:38:32.767Z,4.50
2023-01-22T10:41:05.341Z,4.46
2023-01-22T10:43:39.314Z,3.69
2023-01-22T10:46:24.391Z,4.57
2023-01-22T10:49:08.610Z,4.55
2023-01-22T10:51:52.321Z,4.57
2023-01-22T10:54:32.580Z,4.66
2023-01-22T10:57:25.541Z,4.54
2023-01-22T11:00:17.906Z,4.63
2023-01-22T11:02:52.225Z,4.56
2023-01-22T11:05:30.071Z,4.19
2023-01-22T11:08:11.754Z,4.57
2023-01-22T11:11:02.714Z,4.30
2023-01-22T11:14:23.576Z,4.34
2023-01-22T11:17:05.064Z,4.41
2023-01-22T11:19:47.692Z,4.55
2023-01-22T11:22:37.489Z,4.46
2023-01-22T11:25:15.689Z,4.70
2023-01-22T11:28:21.110Z,4.46
2023-01-22T11:31:21.147Z,4.74
2023-01-22T11:34:34.583Z,4.66
2023-01-22T11:37:46.352Z,4.54
2023-01-22T11:40:34.746Z,4.56
2023-01-22T11:44:00.384Z,4.75
2023-01-22T11:46:57.104Z,4.57
2023-01-22T11:50:08.425Z,4.74
2023-01-22T11:53:00.439Z,4.77
2023-01-22T11:56:03.289Z,4.77
2023-01-22T11:59:04.449Z,4.78
2023-01-22T12:02:28.743Z,4.77
2023-01-22T12:05:38.707Z,4.79
2023-01-22T12:08:28.500Z,4.81
2023-01-22T12:11:28.326Z,4.84
2023-01-22T12:14:47.243Z,4.79
2023-01-22T12:17:43.262Z,4.92
2023-01-22T12:20:43.218Z,4.97
2023-01-22T12:23:29.030Z,4.99
2023-01-22T12:26:33.217Z,4.69
2023-01-22T12:29:23.813Z,4.48
2023-01-22T12:32:13.028Z,5.08
2023-01-22T12:35:06.520Z,5.05
2023-01-22T12:38:15.451Z,5.06
2023-01-22T12:41:12.064Z,5.01
2023-01-22T12:43:54.184Z,5.01
2023-01-22T12:46:38.834Z,5.02
2023-01-22T12:49:16.820Z,5.02
2023-01-22T12:51:56.430Z,5.06
2023-01-22T12:54:38.447Z,5.10
2023-01-22T12:57:20.698Z,5.16
2023-01-22T12:59:58.084Z,5.15
2023-01-22T13:02:31.178Z,5.15
2023-01-22T13:05:32.702Z,5.13
2023-01-22T13:08:43.772Z,5.12
2023-01-22T13:11:35.760Z,5.09
2023-01-22T13:14:29.168Z,5.04
2023-01-22T13:17:04.900Z,5.10
2023-01-22T13:19:44.838Z,4.93
2023-01-22T13:22:23.294Z,4.71
2023-01-22T13:24:59.789Z,5.13
2023-01-22T13:27:37.282Z,4.35
2023-01-22T13:30:26.899Z,5.12
2023-01-22T13:33:12.993Z,4.59
2023-01-22T13:35:47.057Z,5.24
2023-01-22T13:38:32.910Z,4.63
2023-01-22T13:41:18.067Z,5.03
2023-01-22T13:43:50.995Z,5.18
2023-01-22T13:46:23.514Z,5.21
2023-01-22T13:49:25.650Z,5.16
2023-01-22T13:52:08.523Z,4.85
2023-01-22T13:54:47.591Z,4.52
2023-01-22T13:57:22.818Z,4.98
2023-01-22T13:59:56.743Z,5.17
2023-01-22T14:02:35.055Z,4.65
2023-01-22T14:05:20.087Z,4.62
2023-01-22T14:08:24.954Z,4.74
2023-01-22T14:11:00.665Z,5.20
2023-01-22T14:13:46.019Z,4.98
2023-01-22T14:16:18.929Z,5.01
2023-01-22T14:18:51.438Z,4.38
2023-01-22T14:21:23.516Z,4.55
2023-01-22T14:23:55.790Z,5.19
2023-01-22T14:26:27.926Z,5.29
2023-01-22T14:29:00.040Z,5.32
2023-01-22T14:31:32.226Z,5.26
2023-01-22T14:34:05.280Z,4.73
2023-01-22T14:36:37.611Z,4.86
2023-01-22T14:39:09.638Z,5.02
2023-01-22T14:41:44.407Z,4.77
2023-01-22T14:44:16.521Z,4.91
2023-01-22T14:46:48.917Z,5.20
2023-01-22T14:49:21.253Z,5.30
2023-01-22T14:51:54.552Z,5.13
2023-01-22T14:54:26.845Z,5.08
2023-01-22T14:57:02.977Z,4.67
2023-01-22T14:59:35.045Z,5.19
2023-01-22T15:02:07.362Z,5.30
2023-01-22T15:04:42.097Z,5.04
2023-01-22T15:07:14.487Z,4.54
2023-01-22T15:09:47.004Z,4.07
2023-01-22T15:12:19.232Z,4.15
2023-01-22T15:14:52.370Z,5.26
2023-01-22T15:17:24.700Z,5.13
2023-01-22T15:19:57.303Z,4.70
2023-01-22T15:22:29.529Z,4.89
2023-01-22T15:25:01.634Z,5.18
2023-01-22T15:27:34.051Z,5.03
2023-01-22T15:30:07.980Z,5.27
2023-01-22T15:32:40.546Z,5.11
2023-01-22T15:35:12.829Z,5.02
2023-01-22T15:37:45.073Z,5.23
2023-01-22T15:40:17.946Z,5.16
2023-01-22T15:42:50.366Z,4.51
2023-01-22T15:45:23.271Z,4.53
2023-01-22T15:47:55.376Z,5.24
2023-01-22T15:50:28.151Z,4.88
2023-01-22T15:53:00.252Z,5.26
2023-01-22T15:55:32.398Z,4.71
2023-01-22T15:58:04.408Z,5.11
2023-01-22T16:00:36.532Z,5.24
2023-01-22T16:03:08.693Z,5.07
2023-01-22T16:05:40.869Z,5.01
2023-01-22T16:08:12.938Z,5.23
2023-01-22T16:10:44.955Z,4.67
2023-01-22T16:13:17.155Z,5.11
2023-01-22T16:15:59.582Z,5.14
2023-01-22T16:18:35.883Z,5.14
2023-01-22T16:21:09.289Z,5.17
2023-01-22T16:23:44.671Z,4.85
2023-01-22T16:26:21.752Z,5.23
2023-01-22T16:28:56.458Z,4.64
2023-01-22T16:31:33.480Z,4.67
2023-01-22T16:34:18.435Z,4.90
2023-01-22T16:36:52.670Z,5.05
2023-01-22T16:39:26.848Z,5.03
2023-01-22T16:41:58.869Z,5.10
2023-01-22T16:44:33.495Z,4.80
2023-01-22T16:47:05.805Z,5.26
2023-01-22T16:49:38.007Z,4.26
2023-01-22T16:52:21.930Z,5.21
2023-01-22T16:54:55.032Z,5.23
2023-01-22T16:57:27.100Z,5.25
2023-01-22T16:59:59.353Z,5.03
2023-01-22T17:02:31.519Z,4.67
2023-01-22T17:05:03.897Z,5.05
2023-01-22T17:07:35.930Z,5.06
2023-01-22T17:10:11.610Z,5.24
2023-01-22T17:12:43.810Z,5.04
2023-01-22T17:15:15.929Z,5.12
2023-01-22T17:17:48.091Z,5.21
2023-01-22T17:20:20.434Z,4.83
2023-01-22T17:22:53.746Z,4.86
2023-01-22T17:25:26.235Z,5.05
2023-01-22T17:27:58.514Z,5.20
2023-01-22T17:30:30.593Z,5.29
2023-01-22T17:33:02.736Z,5.31
2023-01-22T17:35:34.890Z,5.10
2023-01-22T17:38:10.552Z,5.18
2023-01-22T17:40:43.158Z,5.18
2023-01-22T17:43:15.288Z,4.91
2023-01-22T17:45:52.808Z,4.77
2023-01-22T17:48:24.893Z,5.27
2023-01-22T17:51:11.237Z,5.22
2023-01-22T17:53:47.105Z,5.10
2023-01-22T17:56:24.271Z,4.96
2023-01-22T17:59:00.099Z,4.77
2023-01-22T18:01:34.168Z,5.22
2023-01-22T18:04:10.260Z,5.20
2023-01-22T18:06:44.421Z,5.14
2023-01-22T18:09:17.405Z,4.80
2023-01-22T18:11:49.518Z,5.14
2023-01-22T18:14:28.291Z,5.20
2023-01-22T18:17:01.332Z,5.14
2023-01-22T18:19:36.721Z,5.10
2023-01-22T18:22:08.789Z,5.14
2023-01-22T18:24:40.951Z,4.68
2023-01-22T18:27:15.177Z,5.29
2023-01-22T18:29:47.237Z,5.29
2023-01-22T18:32:19.610Z,5.26
2023-01-22T18:34:52.383Z,4.85
2023-01-22T18:37:24.442Z,4.91
2023-01-22T18:39:56.501Z,4.89
2023-01-22T18:42:30.241Z,4.93
2023-01-22T18:45:02.323Z,5.20
2023-01-22T18:47:34.768Z,5.29
2023-01-22T18:50:10.099Z,5.10
2023-01-22T18:52:48.109Z,5.32
2023-01-22T18:55:22.074Z,4.90
2023-01-22T18:58:36.103Z,4.96
2023-01-22T19:01:20.086Z,5.21
2023-01-22T19:03:59.042Z,5.35
2023-01-22T19:06:37.159Z,5.38
2023-01-22T19:09:14.347Z,5.26
2023-01-22T19:11:49.434Z,5.38
2023-01-22T19:14:22.084Z,5.39
2023-01-22T19:16:54.758Z,5.32
2023-01-22T19:19:27.322Z,5.37
2023-01-22T19:21:59.578Z,5.31
2023-01-22T19:24:32.655Z,5.17
2023-01-22T19:27:04.966Z,5.23
2023-01-22T19:29:37.037Z,5.42
2023-01-22T19:32:14.953Z,5.39
2023-01-22T19:34:47.244Z,5.31
2023-01-22T19:37:19.395Z,4.89
2023-01-22T19:39:52.610Z,5.39
2023-01-22T19:42:25.606Z,5.46
2023-01-22T19:44:57.786Z,5.10
2023-01-22T19:47:29.923Z,5.46
2023-01-22T19:50:02.124Z,5.44
2023-01-22T19:52:34.182Z,5.00
2023-01-22T19:55:06.668Z,5.49
2023-01-22T19:57:38.739Z,5.46
2023-01-22T20:00:11.763Z,4.96
2023-01-22T20:02:43.796Z,5.44
2023-01-22T20:05:20.650Z,5.36
2023-01-22T20:07:57.831Z,4.97
2023-01-22T20:10:31.252Z,5.34
2023-01-22T20:13:11.290Z,5.51
2023-01-22T20:15:43.563Z,5.52
2023-01-22T20:18:15.635Z,5.50
2023-01-22T20:21:00.130Z,5.44
2023-01-22T20:23:32.280Z,5.22
2023-01-22T20:26:08.421Z,5.29
2023-01-22T20:28:40.948Z,5.38
2023-01-22T20:31:21.286Z,5.39
2023-01-22T20:33:56.987Z,5.49
2023-01-22T20:36:29.545Z,5.32
2023-01-22T20:39:02.206Z,4.61
2023-01-22T20:41:34.540Z,5.33
2023-01-22T20:44:06.875Z,5.29
2023-01-22T20:46:41.747Z,5.55
2023-01-22T20:49:13.980Z,5.51
2023-01-22T20:51:46.166Z,5.44
2023-01-22T20:54:18.568Z,4.71
2023-01-22T20:56:52.990Z,5.25
2023-01-22T20:59:27.318Z,4.78
2023-01-22T21:01:59.598Z,5.43
2023-01-22T21:04:31.827Z,5.29
2023-01-22T21:07:04.142Z,5.28
2023-01-22T21:09:36.687Z,5.46
2023-01-22T21:12:08.878Z,5.06
2023-01-22T21:14:42.029Z,5.40
2023-01-22T21:17:13.995Z,5.57
2023-01-22T21:19:46.043Z,5.30
2023-01-22T21:22:18.558Z,4.96
2023-01-22T21:24:55.941Z,4.95
2023-01-22T21:27:28.924Z,5.57
2023-01-22T21:30:01.300Z,5.33
2023-01-22T21:32:33.482Z,5.59
2023-01-22T21:35:06.159Z,5.44
2023-01-22T21:37:38.532Z,5.30
2023-01-22T21:40:13.408Z,4.38
2023-01-22T21:43:04.422Z,4.68
2023-01-22T21:46:04.101Z,4.44
2023-01-22T21:48:38.851Z,4.46
2023-01-22T21:51:11.939Z,5.05
2023-01-22T21:53:56.264Z,4.82
2023-01-22T21:57:08.682Z,4.34
2023-01-22T21:59:44.143Z,4.71
2023-01-22T22:02:25.203Z,4.57
2023-01-22T22:05:04.217Z,4.36
2023-01-22T22:07:46.107Z,5.23
2023-01-22T22:13:18.186Z,4.76
2023-01-22T22:16:01.635Z,5.49
2023-01-22T22:18:34.388Z,5.17
2023-01-22T22:21:15.704Z,4.83
2023-01-22T22:23:48.000Z,5.08
2023-01-22T22:26:24.124Z,5.16
2023-01-22T22:29:06.802Z,4.93
2023-01-22T22:31:47.883Z,5.59
2023-01-22T22:34:20.502Z,5.35
2023-01-22T22:40:06.672Z,5.52
2023-01-22T22:42:48.563Z,5.62
2023-01-22T22:45:34.461Z,5.63
2023-01-22T22:48:11.594Z,5.06
2023-01-22T22:50:47.008Z,5.59
2023-01-22T22:53:19.033Z,5.25
2023-01-22T22:55:51.833Z,5.63
2023-01-22T22:58:24.001Z,5.19
2023-01-22T23:00:56.009Z,5.15
2023-01-22T23:03:28.021Z,5.67
2023-01-22T23:06:11.953Z,5.50
2023-01-22T23:08:54.040Z,5.67
2023-01-22T23:11:32.900Z,5.28
2023-01-22T23:14:06.035Z,5.51
2023-01-22T23:16:43.283Z,5.67
2023-01-22T23:19:25.490Z,5.61
2023-01-22T23:22:00.355Z,4.81
2023-01-22T23:24:32.547Z,4.74
2023-01-22T23:27:04.783Z,5.57
2023-01-22T23:29:36.884Z,5.59
2023-01-22T23:32:08.998Z,5.14
2023-01-22T23:34:43.871Z,5.43
2023-01-22T23:37:16.028Z,5.32
2023-01-22T23:39:54.028Z,5.55
2023-01-22T23:42:26.188Z,4.76
2023-01-22T23:44:58.273Z,5.20
2023-01-22T23:47:31.118Z,5.57
2023-01-22T23:50:03.384Z,5.57
2023-01-22T23:52:36.834Z,5.38
2023-01-22T23:55:10.003Z,5.60
2023-01-22T23:57:44.212Z,5.58
